Terminal Aerodrome Forecast
Issued by NWS

Home | Current Version | Previous Version | Text Only | Print | Product List | Glossary On
Versions: 1 2 3 4 5 6 7 8 9 10 11 12 13
235
FTUS42 KTBW 281120
TAFPIE
TAF
KPIE 281120Z 2812/0112 VRB04KT P6SM FEW005
      TEMPO 2812/2814 4SM BR
     FM281400 14008KT P6SM FEW035
     FM281900 24009KT P6SM SCT040
     FM010100 VRB04KT P6SM FEW030=

USA.gov is the U.S. government's official web portal to all federal, state and local government web resources and services.